sensor_id;sensor_type;location;lat;lon;timestamp;temperature;humidity
6307;DHT22;3186;54.062;9.962;2023-04-03T00:01:14;3.50;94.10
6307;DHT22;3186;54.062;9.962;2023-04-03T00:03:40;3.50;94.20
6307;DHT22;3186;54.062;9.962;2023-04-03T00:06:07;3.50;94.60
6307;DHT22;3186;54.062;9.962;2023-04-03T00:08:35;3.40;94.40
6307;DHT22;3186;54.062;9.962;2023-04-03T00:11:01;3.40;94.50
6307;DHT22;3186;54.062;9.962;2023-04-03T00:13:27;3.40;94.50
6307;DHT22;3186;54.062;9.962;2023-04-03T00:15:53;3.40;94.30
6307;DHT22;3186;54.062;9.962;2023-04-03T00:18:19;3.40;94.60
6307;DHT22;3186;54.062;9.962;2023-04-03T00:20:45;3.30;94.10
6307;DHT22;3186;54.062;9.962;2023-04-03T00:23:11;3.20;94.50
6307;DHT22;3186;54.062;9.962;2023-04-03T00:25:37;3.20;94.50
6307;DHT22;3186;54.062;9.962;2023-04-03T00:28:04;3.20;94.60
6307;DHT22;3186;54.062;9.962;2023-04-03T00:30:30;3.20;94.50
6307;DHT22;3186;54.062;9.962;2023-04-03T00:32:56;3.10;94.50
6307;DHT22;3186;54.062;9.962;2023-04-03T00:35:23;3.10;94.50
6307;DHT22;3186;54.062;9.962;2023-04-03T00:37:53;3.10;94.50
6307;DHT22;3186;54.062;9.962;2023-04-03T00:40:21;3.10;94.60
6307;DHT22;3186;54.062;9.962;2023-04-03T00:42:49;3.00;94.50
6307;DHT22;3186;54.062;9.962;2023-04-03T00:45:34;3.00;94.90
6307;DHT22;3186;54.062;9.962;2023-04-03T00:48:01;3.00;95.00
6307;DHT22;3186;54.062;9.962;2023-04-03T00:50:32;3.00;94.90
6307;DHT22;3186;54.062;9.962;2023-04-03T00:52:58;2.90;94.80
6307;DHT22;3186;54.062;9.962;2023-04-03T00:55:24;2.90;95.00
6307;DHT22;3186;54.062;9.962;2023-04-03T00:57:51;2.90;94.80
6307;DHT22;3186;54.062;9.962;2023-04-03T01:00:20;2.90;94.90
6307;DHT22;3186;54.062;9.962;2023-04-03T01:02:46;2.80;94.80
6307;DHT22;3186;54.062;9.962;2023-04-03T01:05:16;2.80;95.30
6307;DHT22;3186;54.062;9.962;2023-04-03T01:07:45;2.80;95.30
6307;DHT22;3186;54.062;9.962;2023-04-03T01:10:14;2.70;95.20
6307;DHT22;3186;54.062;9.962;2023-04-03T01:12:43;2.70;95.40
6307;DHT22;3186;54.062;9.962;2023-04-03T01:15:13;2.70;95.70
6307;DHT22;3186;54.062;9.962;2023-04-03T01:17:45;2.70;95.60
6307;DHT22;3186;54.062;9.962;2023-04-03T01:25:48;2.60;95.90
6307;DHT22;3186;54.062;9.962;2023-04-03T01:28:23;2.60;96.00
6307;DHT22;3186;54.062;9.962;2023-04-03T01:33:40;2.50;96.20
6307;DHT22;3186;54.062;9.962;2023-04-03T01:36:07;2.50;96.20
6307;DHT22;3186;54.062;9.962;2023-04-03T01:38:33;2.50;96.20
6307;DHT22;3186;54.062;9.962;2023-04-03T01:40:59;2.50;96.00
6307;DHT22;3186;54.062;9.962;2023-04-03T01:43:25;2.50;96.40
6307;DHT22;3186;54.062;9.962;2023-04-03T01:45:51;2.40;96.40
6307;DHT22;3186;54.062;9.962;2023-04-03T01:48:18;2.40;96.70
6307;DHT22;3186;54.062;9.962;2023-04-03T01:50:44;2.40;96.50
6307;DHT22;3186;54.062;9.962;2023-04-03T01:53:09;2.40;96.90
6307;DHT22;3186;54.062;9.962;2023-04-03T01:55:35;2.40;96.60
6307;DHT22;3186;54.062;9.962;2023-04-03T01:58:01;2.30;97.00
6307;DHT22;3186;54.062;9.962;2023-04-03T02:00:27;2.30;96.50
6307;DHT22;3186;54.062;9.962;2023-04-03T02:02:53;2.30;96.90
6307;DHT22;3186;54.062;9.962;2023-04-03T02:05:19;2.40;96.70
6307;DHT22;3186;54.062;9.962;2023-04-03T02:07:45;2.30;96.80
6307;DHT22;3186;54.062;9.962;2023-04-03T02:10:12;2.20;96.80
6307;DHT22;3186;54.062;9.962;2023-04-03T02:12:38;2.20;96.60
6307;DHT22;3186;54.062;9.962;2023-04-03T02:15:05;2.20;96.70
6307;DHT22;3186;54.062;9.962;2023-04-03T02:17:31;2.20;96.60
6307;DHT22;3186;54.062;9.962;2023-04-03T02:19:57;2.10;96.60
6307;DHT22;3186;54.062;9.962;2023-04-03T02:22:23;2.10;96.50
6307;DHT22;3186;54.062;9.962;2023-04-03T02:24:50;2.10;96.50
6307;DHT22;3186;54.062;9.962;2023-04-03T02:27:17;2.10;96.60
6307;DHT22;3186;54.062;9.962;2023-04-03T02:29:43;2.10;96.50
6307;DHT22;3186;54.062;9.962;2023-04-03T02:32:09;2.10;96.60
6307;DHT22;3186;54.062;9.962;2023-04-03T02:34:35;2.00;96.40
6307;DHT22;3186;54.062;9.962;2023-04-03T02:37:02;2.00;96.70
6307;DHT22;3186;54.062;9.962;2023-04-03T02:39:28;2.00;96.70
6307;DHT22;3186;54.062;9.962;2023-04-03T02:41:55;1.90;96.60
6307;DHT22;3186;54.062;9.962;2023-04-03T02:44:24;1.90;96.80
6307;DHT22;3186;54.062;9.962;2023-04-03T02:46:50;2.00;96.80
6307;DHT22;3186;54.062;9.962;2023-04-03T02:49:16;1.90;96.90
6307;DHT22;3186;54.062;9.962;2023-04-03T02:51:42;1.90;96.90
6307;DHT22;3186;54.062;9.962;2023-04-03T02:54:08;1.80;96.80
6307;DHT22;3186;54.062;9.962;2023-04-03T02:56:37;1.80;97.10
6307;DHT22;3186;54.062;9.962;2023-04-03T02:59:04;1.80;97.00
6307;DHT22;3186;54.062;9.962;2023-04-03T03:01:31;1.80;96.90
6307;DHT22;3186;54.062;9.962;2023-04-03T03:03:59;1.80;97.00
6307;DHT22;3186;54.062;9.962;2023-04-03T03:06:25;1.70;96.90
6307;DHT22;3186;54.062;9.962;2023-04-03T03:08:52;1.70;97.10
6307;DHT22;3186;54.062;9.962;2023-04-03T03:11:18;1.70;97.20
6307;DHT22;3186;54.062;9.962;2023-04-03T03:13:43;1.70;97.00
6307;DHT22;3186;54.062;9.962;2023-04-03T03:16:09;1.70;97.20
6307;DHT22;3186;54.062;9.962;2023-04-03T03:18:36;2.40;97.70
6307;DHT22;3186;54.062;9.962;2023-04-03T03:21:02;1.60;97.50
6307;DHT22;3186;54.062;9.962;2023-04-03T03:23:30;1.60;97.30
6307;DHT22;3186;54.062;9.962;2023-04-03T03:26:03;1.60;97.50
6307;DHT22;3186;54.062;9.962;2023-04-03T03:28:30;1.60;97.30
6307;DHT22;3186;54.062;9.962;2023-04-03T03:30:57;1.60;97.20
6307;DHT22;3186;54.062;9.962;2023-04-03T03:33:23;1.50;97.30
6307;DHT22;3186;54.062;9.962;2023-04-03T03:35:49;1.50;97.70
6307;DHT22;3186;54.062;9.962;2023-04-03T03:38:15;1.50;97.60
6307;DHT22;3186;54.062;9.962;2023-04-03T03:40:41;1.50;97.10
6307;DHT22;3186;54.062;9.962;2023-04-03T03:43:07;1.40;97.40
6307;DHT22;3186;54.062;9.962;2023-04-03T03:45:33;1.50;97.40
6307;DHT22;3186;54.062;9.962;2023-04-03T03:48:00;1.40;97.40
6307;DHT22;3186;54.062;9.962;2023-04-03T03:50:26;1.40;97.70
6307;DHT22;3186;54.062;9.962;2023-04-03T03:52:52;1.40;97.60
6307;DHT22;3186;54.062;9.962;2023-04-03T03:55:18;1.30;97.70
6307;DHT22;3186;54.062;9.962;2023-04-03T03:57:48;1.30;97.70
6307;DHT22;3186;54.062;9.962;2023-04-03T04:00:15;1.30;97.70
6307;DHT22;3186;54.062;9.962;2023-04-03T04:02:42;1.30;97.50
6307;DHT22;3186;54.062;9.962;2023-04-03T04:05:11;1.30;98.30
6307;DHT22;3186;54.062;9.962;2023-04-03T04:07:37;1.30;97.60
6307;DHT22;3186;54.062;9.962;2023-04-03T04:10:04;1.20;97.80
6307;DHT22;3186;54.062;9.962;2023-04-03T04:12:31;1.20;98.20
6307;DHT22;3186;54.062;9.962;2023-04-03T04:14:57;1.20;98.00
6307;DHT22;3186;54.062;9.962;2023-04-03T04:17:23;1.20;97.90
6307;DHT22;3186;54.062;9.962;2023-04-03T04:19:50;1.20;98.10
6307;DHT22;3186;54.062;9.962;2023-04-03T04:22:16;1.20;98.30
6307;DHT22;3186;54.062;9.962;2023-04-03T04:24:42;1.20;97.90
6307;DHT22;3186;54.062;9.962;2023-04-03T04:27:08;1.10;98.00
6307;DHT22;3186;54.062;9.962;2023-04-03T04:29:34;1.10;98.00
6307;DHT22;3186;54.062;9.962;2023-04-03T04:32:04;1.10;97.80
6307;DHT22;3186;54.062;9.962;2023-04-03T04:34:30;1.10;98.20
6307;DHT22;3186;54.062;9.962;2023-04-03T04:36:56;1.10;98.20
6307;DHT22;3186;54.062;9.962;2023-04-03T04:39:22;1.00;98.20
6307;DHT22;3186;54.062;9.962;2023-04-03T04:41:48;1.00;98.20
6307;DHT22;3186;54.062;9.962;2023-04-03T04:44:14;1.00;98.30
6307;DHT22;3186;54.062;9.962;2023-04-03T04:46:41;1.00;98.00
6307;DHT22;3186;54.062;9.962;2023-04-03T04:49:07;1.00;98.30
6307;DHT22;3186;54.062;9.962;2023-04-03T04:51:33;0.90;98.50
6307;DHT22;3186;54.062;9.962;2023-04-03T04:54:00;0.90;98.50
6307;DHT22;3186;54.062;9.962;2023-04-03T04:56:26;0.90;98.50
6307;DHT22;3186;54.062;9.962;2023-04-03T04:58:53;0.90;98.30
6307;DHT22;3186;54.062;9.962;2023-04-03T05:01:21;0.90;98.10
6307;DHT22;3186;54.062;9.962;2023-04-03T05:03:54;1.60;98.60
6307;DHT22;3186;54.062;9.962;2023-04-03T05:06:21;0.90;98.40
6307;DHT22;3186;54.062;9.962;2023-04-03T05:08:48;0.80;98.30
6307;DHT22;3186;54.062;9.962;2023-04-03T05:11:14;0.90;98.50
6307;DHT22;3186;54.062;9.962;2023-04-03T05:13:41;0.80;98.40
6307;DHT22;3186;54.062;9.962;2023-04-03T05:16:07;0.80;98.50
6307;DHT22;3186;54.062;9.962;2023-04-03T05:18:33;0.80;98.10
6307;DHT22;3186;54.062;9.962;2023-04-03T05:21:04;0.80;98.50
6307;DHT22;3186;54.062;9.962;2023-04-03T05:23:30;0.80;98.50
6307;DHT22;3186;54.062;9.962;2023-04-03T05:25:59;0.70;99.70
6307;DHT22;3186;54.062;9.962;2023-04-03T05:28:26;0.70;99.50
6307;DHT22;3186;54.062;9.962;2023-04-03T05:30:57;0.70;99.50
6307;DHT22;3186;54.062;9.962;2023-04-03T05:33:26;0.70;99.60
6307;DHT22;3186;54.062;9.962;2023-04-03T05:36:01;0.70;99.90
6307;DHT22;3186;54.062;9.962;2023-04-03T05:38:40;0.70;99.90
6307;DHT22;3186;54.062;9.962;2023-04-03T05:41:06;0.70;99.90
6307;DHT22;3186;54.062;9.962;2023-04-03T05:43:33;0.70;99.90
6307;DHT22;3186;54.062;9.962;2023-04-03T05:46:01;0.70;99.90
6307;DHT22;3186;54.062;9.962;2023-04-03T05:48:28;0.60;99.90
6307;DHT22;3186;54.062;9.962;2023-04-03T05:50:54;0.60;99.90
6307;DHT22;3186;54.062;9.962;2023-04-03T05:53:27;0.60;99.90
6307;DHT22;3186;54.062;9.962;2023-04-03T05:55:54;0.60;99.90
6307;DHT22;3186;54.062;9.962;2023-04-03T05:58:20;0.70;99.90
6307;DHT22;3186;54.062;9.962;2023-04-03T06:00:49;0.60;99.90
6307;DHT22;3186;54.062;9.962;2023-04-03T06:03:15;0.60;99.90
6307;DHT22;3186;54.062;9.962;2023-04-03T06:05:43;0.60;99.90
6307;DHT22;3186;54.062;9.962;2023-04-03T06:08:10;0.60;99.90
6307;DHT22;3186;54.062;9.962;2023-04-03T06:10:36;0.60;99.90
6307;DHT22;3186;54.062;9.962;2023-04-03T06:13:02;0.60;99.90
6307;DHT22;3186;54.062;9.962;2023-04-03T06:15:28;0.70;99.90
6307;DHT22;3186;54.062;9.962;2023-04-03T06:17:54;0.70;99.90
6307;DHT22;3186;54.062;9.962;2023-04-03T06:20:21;0.70;99.90
6307;DHT22;3186;54.062;9.962;2023-04-03T06:22:48;0.70;99.90
6307;DHT22;3186;54.062;9.962;2023-04-03T06:25:14;0.70;99.90
6307;DHT22;3186;54.062;9.962;2023-04-03T06:27:43;0.70;99.90
6307;DHT22;3186;54.062;9.962;2023-04-03T06:30:09;0.70;99.90
6307;DHT22;3186;54.062;9.962;2023-04-03T06:32:35;0.80;99.90
6307;DHT22;3186;54.062;9.962;2023-04-03T06:35:00;0.80;99.90
6307;DHT22;3186;54.062;9.962;2023-04-03T06:37:26;0.80;99.90
6307;DHT22;3186;54.062;9.962;2023-04-03T06:39:54;0.80;99.90
6307;DHT22;3186;54.062;9.962;2023-04-03T06:42:20;0.80;99.90
6307;DHT22;3186;54.062;9.962;2023-04-03T06:44:54;0.80;99.90
6307;DHT22;3186;54.062;9.962;2023-04-03T06:47:19;0.80;99.90
6307;DHT22;3186;54.062;9.962;2023-04-03T06:49:45;0.80;99.90
6307;DHT22;3186;54.062;9.962;2023-04-03T06:52:11;0.80;99.90
6307;DHT22;3186;54.062;9.962;2023-04-03T06:54:38;0.70;99.90
6307;DHT22;3186;54.062;9.962;2023-04-03T06:57:04;0.80;99.90
6307;DHT22;3186;54.062;9.962;2023-04-03T06:59:30;0.80;99.90
6307;DHT22;3186;54.062;9.962;2023-04-03T07:01:56;0.90;99.90
6307;DHT22;3186;54.062;9.962;2023-04-03T07:04:24;1.10;99.90
6307;DHT22;3186;54.062;9.962;2023-04-03T07:06:50;1.30;99.90
6307;DHT22;3186;54.062;9.962;2023-04-03T07:09:16;1.40;99.90
6307;DHT22;3186;54.062;9.962;2023-04-03T07:11:42;1.50;99.90
6307;DHT22;3186;54.062;9.962;2023-04-03T07:14:07;1.50;99.90
6307;DHT22;3186;54.062;9.962;2023-04-03T07:16:34;1.50;99.90
6307;DHT22;3186;54.062;9.962;2023-04-03T07:19:01;1.40;99.90
6307;DHT22;3186;54.062;9.962;2023-04-03T07:21:27;1.40;99.90
6307;DHT22;3186;54.062;9.962;2023-04-03T07:23:54;1.40;99.90
6307;DHT22;3186;54.062;9.962;2023-04-03T07:26:20;1.60;99.90
6307;DHT22;3186;54.062;9.962;2023-04-03T07:28:47;1.80;99.90
6307;DHT22;3186;54.062;9.962;2023-04-03T07:31:14;1.90;99.90
6307;DHT22;3186;54.062;9.962;2023-04-03T07:33:41;1.90;99.90
6307;DHT22;3186;54.062;9.962;2023-04-03T07:36:09;2.00;99.90
6307;DHT22;3186;54.062;9.962;2023-04-03T07:38:36;2.20;99.90
6307;DHT22;3186;54.062;9.962;2023-04-03T07:41:03;2.30;99.90
6307;DHT22;3186;54.062;9.962;2023-04-03T07:43:29;2.50;99.90
6307;DHT22;3186;54.062;9.962;2023-04-03T07:45:55;2.40;99.90
6307;DHT22;3186;54.062;9.962;2023-04-03T07:48:25;2.40;99.90
6307;DHT22;3186;54.062;9.962;2023-04-03T07:50:52;2.70;99.90
6307;DHT22;3186;54.062;9.962;2023-04-03T07:53:18;2.90;99.90
6307;DHT22;3186;54.062;9.962;2023-04-03T07:55:48;3.20;99.90
6307;DHT22;3186;54.062;9.962;2023-04-03T07:58:17;3.10;99.90
6307;DHT22;3186;54.062;9.962;2023-04-03T08:00:43;3.60;99.90
6307;DHT22;3186;54.062;9.962;2023-04-03T08:03:10;3.60;99.90
6307;DHT22;3186;54.062;9.962;2023-04-03T08:05:38;3.90;99.90
6307;DHT22;3186;54.062;9.962;2023-04-03T08:08:05;4.00;95.90
6307;DHT22;3186;54.062;9.962;2023-04-03T08:10:31;4.10;92.90
6307;DHT22;3186;54.062;9.962;2023-04-03T08:12:57;4.10;93.10
6307;DHT22;3186;54.062;9.962;2023-04-03T08:15:26;4.10;91.70
6307;DHT22;3186;54.062;9.962;2023-04-03T08:17:53;4.00;93.90
6307;DHT22;3186;54.062;9.962;2023-04-03T08:20:19;4.50;88.40
6307;DHT22;3186;54.062;9.962;2023-04-03T08:22:45;4.80;75.80
6307;DHT22;3186;54.062;9.962;2023-04-03T08:25:10;5.20;65.40
6307;DHT22;3186;54.062;9.962;2023-04-03T08:27:36;5.40;59.00
6307;DHT22;3186;54.062;9.962;2023-04-03T08:30:03;5.40;52.30
6307;DHT22;3186;54.062;9.962;2023-04-03T08:32:29;5.70;56.70
6307;DHT22;3186;54.062;9.962;2023-04-03T08:34:55;5.90;48.90
6307;DHT22;3186;54.062;9.962;2023-04-03T08:37:21;6.10;34.20
6307;DHT22;3186;54.062;9.962;2023-04-03T08:39:47;6.10;48.80
6307;DHT22;3186;54.062;9.962;2023-04-03T08:45:17;6.50;39.60
6307;DHT22;3186;54.062;9.962;2023-04-03T08:48:00;6.90;36.60
6307;DHT22;3186;54.062;9.962;2023-04-03T08:50:36;6.90;32.70
6307;DHT22;3186;54.062;9.962;2023-04-03T08:53:03;7.00;41.30
6307;DHT22;3186;54.062;9.962;2023-04-03T08:55:41;6.70;24.80
6307;DHT22;3186;54.062;9.962;2023-04-03T08:58:29;6.50;24.70
6307;DHT22;3186;54.062;9.962;2023-04-03T09:01:05;6.40;27.40
6307;DHT22;3186;54.062;9.962;2023-04-03T09:03:37;6.60;29.30
6307;DHT22;3186;54.062;9.962;2023-04-03T09:14:02;6.50;17.60
6307;DHT22;3186;54.062;9.962;2023-04-03T09:21:39;7.30;5.70
6307;DHT22;3186;54.062;9.962;2023-04-03T09:24:10;5.60;25.90
6307;DHT22;3186;54.062;9.962;2023-04-03T09:27:00;6.90;29.10
6307;DHT22;3186;54.062;9.962;2023-04-03T09:29:28;7.80;14.10
6307;DHT22;3186;54.062;9.962;2023-04-03T09:32:00;8.60;4.00
6307;DHT22;3186;54.062;9.962;2023-04-03T09:34:35;9.10;7.10
6307;DHT22;3186;54.062;9.962;2023-04-03T09:37:03;9.20;1.00
6307;DHT22;3186;54.062;9.962;2023-04-03T09:39:49;9.00;1.60
6307;DHT22;3186;54.062;9.962;2023-04-03T09:42:21;8.00;11.80
6307;DHT22;3186;54.062;9.962;2023-04-03T09:44:59;7.70;17.60
6307;DHT22;3186;54.062;9.962;2023-04-03T09:47:31;8.40;28.00
6307;DHT22;3186;54.062;9.962;2023-04-03T09:50:28;7.10;3.20
6307;DHT22;3186;54.062;9.962;2023-04-03T09:53:06;9.60;1.00
6307;DHT22;3186;54.062;9.962;2023-04-03T09:55:33;9.50;20.90
6307;DHT22;3186;54.062;9.962;2023-04-03T09:58:27;9.30;33.70
6307;DHT22;3186;54.062;9.962;2023-04-03T10:01:00;8.70;38.80
6307;DHT22;3186;54.062;9.962;2023-04-03T10:03:35;8.70;34.90
6307;DHT22;3186;54.062;9.962;2023-04-03T10:06:24;8.20;45.70
6307;DHT22;3186;54.062;9.962;2023-04-03T10:09:15;8.90;20.20
6307;DHT22;3186;54.062;9.962;2023-04-03T10:14:24;9.60;15.20
6307;DHT22;3186;54.062;9.962;2023-04-03T10:41:16;10.10;7.40
6307;DHT22;3186;54.062;9.962;2023-04-03T10:43:53;10.20;11.60
6307;DHT22;3186;54.062;9.962;2023-04-03T10:46:23;10.30;1.00
6307;DHT22;3186;54.062;9.962;2023-04-03T10:51:45;11.50;1.00
6307;DHT22;3186;54.062;9.962;2023-04-03T10:54:41;10.90;1.00
6307;DHT22;3186;54.062;9.962;2023-04-03T10:57:10;9.80;2.30
6307;DHT22;3186;54.062;9.962;2023-04-03T10:59:59;9.40;13.90
6307;DHT22;3186;54.062;9.962;2023-04-03T11:02:32;9.00;13.30
6307;DHT22;3186;54.062;9.962;2023-04-03T11:05:05;9.30;23.30
6307;DHT22;3186;54.062;9.962;2023-04-03T11:07:40;9.00;24.80
6307;DHT22;3186;54.062;9.962;2023-04-03T11:10:35;10.40;11.00
6307;DHT22;3186;54.062;9.962;2023-04-03T11:13:13;10.30;24.30
6307;DHT22;3186;54.062;9.962;2023-04-03T11:15:39;10.30;34.10
6307;DHT22;3186;54.062;9.962;2023-04-03T11:18:11;9.90;13.50
6307;DHT22;3186;54.062;9.962;2023-04-03T11:20:42;9.90;20.20
6307;DHT22;3186;54.062;9.962;2023-04-03T11:23:20;10.50;46.90
6307;DHT22;3186;54.062;9.962;2023-04-03T11:25:51;10.90;14.40
6307;DHT22;3186;54.062;9.962;2023-04-03T11:28:18;11.00;49.60
6307;DHT22;3186;54.062;9.962;2023-04-03T11:33:28;11.20;74.60
6307;DHT22;3186;54.062;9.962;2023-04-03T11:36:03;10.90;36.90
6307;DHT22;3186;54.062;9.962;2023-04-03T11:38:37;11.00;39.70
6307;DHT22;3186;54.062;9.962;2023-04-03T11:41:07;11.00;40.80
6307;DHT22;3186;54.062;9.962;2023-04-03T11:43:39;10.40;12.90
6307;DHT22;3186;54.062;9.962;2023-04-03T11:46:07;10.80;33.30
6307;DHT22;3186;54.062;9.962;2023-04-03T11:53:54;11.00;25.20
6307;DHT22;3186;54.062;9.962;2023-04-03T12:04:15;11.00;27.50
6307;DHT22;3186;54.062;9.962;2023-04-03T12:09:33;10.90;21.00
6307;DHT22;3186;54.062;9.962;2023-04-03T12:12:00;10.60;13.80
6307;DHT22;3186;54.062;9.962;2023-04-03T12:14:28;10.60;38.50
6307;DHT22;3186;54.062;9.962;2023-04-03T12:16:55;12.00;8.80
6307;DHT22;3186;54.062;9.962;2023-04-03T12:19:37;12.10;8.20
6307;DHT22;3186;54.062;9.962;2023-04-03T12:22:19;12.10;21.70
6307;DHT22;3186;54.062;9.962;2023-04-03T12:24:51;11.70;12.60
6307;DHT22;3186;54.062;9.962;2023-04-03T12:27:38;11.80;28.30
6307;DHT22;3186;54.062;9.962;2023-04-03T12:30:14;12.10;31.10
6307;DHT22;3186;54.062;9.962;2023-04-03T12:44:34;11.80;36.10
6307;DHT22;3186;54.062;9.962;2023-04-03T12:47:16;12.00;34.10
6307;DHT22;3186;54.062;9.962;2023-04-03T12:49:45;11.90;28.10
6307;DHT22;3186;54.062;9.962;2023-04-03T12:54:48;10.30;32.00
6307;DHT22;3186;54.062;9.962;2023-04-03T12:57:19;12.20;6.70
6307;DHT22;3186;54.062;9.962;2023-04-03T12:59:45;11.80;21.70
6307;DHT22;3186;54.062;9.962;2023-04-03T13:02:27;11.90;22.90
6307;DHT22;3186;54.062;9.962;2023-04-03T13:04:55;11.70;19.20
6307;DHT22;3186;54.062;9.962;2023-04-03T13:07:34;11.80;32.80
6307;DHT22;3186;54.062;9.962;2023-04-03T13:12:45;12.30;31.00
6307;DHT22;3186;54.062;9.962;2023-04-03T13:15:18;12.10;21.10
6307;DHT22;3186;54.062;9.962;2023-04-03T13:17:44;12.00;26.10
6307;DHT22;3186;54.062;9.962;2023-04-03T13:25:24;12.20;33.10
6307;DHT22;3186;54.062;9.962;2023-04-03T13:27:51;12.00;24.50
6307;DHT22;3186;54.062;9.962;2023-04-03T13:30:37;12.50;30.20
6307;DHT22;3186;54.062;9.962;2023-04-03T13:33:17;12.50;31.80
6307;DHT22;3186;54.062;9.962;2023-04-03T13:35:44;12.70;34.40
6307;DHT22;3186;54.062;9.962;2023-04-03T13:41:21;12.50;33.10
6307;DHT22;3186;54.062;9.962;2023-04-03T13:43:48;12.60;48.10
6307;DHT22;3186;54.062;9.962;2023-04-03T13:48:41;12.20;29.70
6307;DHT22;3186;54.062;9.962;2023-04-03T13:56:33;12.00;35.00
6307;DHT22;3186;54.062;9.962;2023-04-03T13:59:22;12.20;29.70
6307;DHT22;3186;54.062;9.962;2023-04-03T14:04:31;12.70;23.40
6307;DHT22;3186;54.062;9.962;2023-04-03T14:06:58;12.80;34.00
6307;DHT22;3186;54.062;9.962;2023-04-03T14:09:27;12.80;8.00
6307;DHT22;3186;54.062;9.962;2023-04-03T14:12:00;12.80;34.90
6307;DHT22;3186;54.062;9.962;2023-04-03T14:14:33;12.70;39.90
6307;DHT22;3186;54.062;9.962;2023-04-03T14:17:02;12.70;30.00
6307;DHT22;3186;54.062;9.962;2023-04-03T14:19:31;12.70;32.90
6307;DHT22;3186;54.062;9.962;2023-04-03T14:21:59;12.70;15.40
6307;DHT22;3186;54.062;9.962;2023-04-03T14:24:26;13.20;56.80
6307;DHT22;3186;54.062;9.962;2023-04-03T14:26:54;13.20;53.60
6307;DHT22;3186;54.062;9.962;2023-04-03T14:29:21;13.10;37.50
6307;DHT22;3186;54.062;9.962;2023-04-03T14:31:47;13.20;53.40
6307;DHT22;3186;54.062;9.962;2023-04-03T14:34:15;13.00;33.70
6307;DHT22;3186;54.062;9.962;2023-04-03T14:36:42;12.60;30.70
6307;DHT22;3186;54.062;9.962;2023-04-03T14:39:15;13.00;52.80
6307;DHT22;3186;54.062;9.962;2023-04-03T14:41:42;13.20;42.20
6307;DHT22;3186;54.062;9.962;2023-04-03T14:44:08;13.20;60.80
6307;DHT22;3186;54.062;9.962;2023-04-03T14:46:36;13.20;46.50
6307;DHT22;3186;54.062;9.962;2023-04-03T14:49:04;12.80;18.70
6307;DHT22;3186;54.062;9.962;2023-04-03T14:51:35;13.20;41.60
6307;DHT22;3186;54.062;9.962;2023-04-03T14:54:03;13.00;48.90
6307;DHT22;3186;54.062;9.962;2023-04-03T14:56:29;12.90;32.10
6307;DHT22;3186;54.062;9.962;2023-04-03T14:59:00;13.20;61.30
6307;DHT22;3186;54.062;9.962;2023-04-03T15:01:27;13.10;46.60
6307;DHT22;3186;54.062;9.962;2023-04-03T15:03:53;13.10;44.30
6307;DHT22;3186;54.062;9.962;2023-04-03T15:06:20;13.10;33.80
6307;DHT22;3186;54.062;9.962;2023-04-03T15:08:47;13.10;52.40
6307;DHT22;3186;54.062;9.962;2023-04-03T15:11:14;13.30;51.80
6307;DHT22;3186;54.062;9.962;2023-04-03T15:13:40;13.50;58.70
6307;DHT22;3186;54.062;9.962;2023-04-03T15:16:16;13.30;49.30
6307;DHT22;3186;54.062;9.962;2023-04-03T15:18:43;13.10;46.00
6307;DHT22;3186;54.062;9.962;2023-04-03T15:21:09;13.20;57.00
6307;DHT22;3186;54.062;9.962;2023-04-03T15:23:35;13.00;40.50
6307;DHT22;3186;54.062;9.962;2023-04-03T15:26:01;13.10;36.50
6307;DHT22;3186;54.062;9.962;2023-04-03T15:28:34;13.20;63.70
6307;DHT22;3186;54.062;9.962;2023-04-03T15:31:01;13.20;58.00
6307;DHT22;3186;54.062;9.962;2023-04-03T15:33:28;13.20;54.80
6307;DHT22;3186;54.062;9.962;2023-04-03T15:35:54;13.30;48.40
6307;DHT22;3186;54.062;9.962;2023-04-03T15:38:20;13.30;51.00
6307;DHT22;3186;54.062;9.962;2023-04-03T15:40:46;13.50;54.80
6307;DHT22;3186;54.062;9.962;2023-04-03T15:43:15;13.50;56.80
6307;DHT22;3186;54.062;9.962;2023-04-03T15:45:41;13.40;37.20
6307;DHT22;3186;54.062;9.962;2023-04-03T15:48:08;13.40;56.00
6307;DHT22;3186;54.062;9.962;2023-04-03T15:50:35;13.50;58.70
6307;DHT22;3186;54.062;9.962;2023-04-03T15:53:01;13.40;35.60
6307;DHT22;3186;54.062;9.962;2023-04-03T15:55:31;13.40;64.30
6307;DHT22;3186;54.062;9.962;2023-04-03T15:58:00;13.50;56.60
6307;DHT22;3186;54.062;9.962;2023-04-03T16:00:27;13.40;52.00
6307;DHT22;3186;54.062;9.962;2023-04-03T16:02:57;13.60;58.50
6307;DHT22;3186;54.062;9.962;2023-04-03T16:05:24;13.50;50.40
6307;DHT22;3186;54.062;9.962;2023-04-03T16:07:50;13.20;50.30
6307;DHT22;3186;54.062;9.962;2023-04-03T16:10:17;13.30;56.50
6307;DHT22;3186;54.062;9.962;2023-04-03T16:12:43;13.30;52.80
6307;DHT22;3186;54.062;9.962;2023-04-03T16:15:10;13.20;48.40
6307;DHT22;3186;54.062;9.962;2023-04-03T16:17:37;13.10;44.50
6307;DHT22;3186;54.062;9.962;2023-04-03T16:20:04;13.20;55.80
6307;DHT22;3186;54.062;9.962;2023-04-03T16:22:30;13.10;49.00
6307;DHT22;3186;54.062;9.962;2023-04-03T16:24:56;13.00;41.40
6307;DHT22;3186;54.062;9.962;2023-04-03T16:27:23;12.90;43.00
6307;DHT22;3186;54.062;9.962;2023-04-03T16:29:54;12.90;52.40
6307;DHT22;3186;54.062;9.962;2023-04-03T16:32:21;12.70;50.00
6307;DHT22;3186;54.062;9.962;2023-04-03T16:34:47;12.70;41.70
6307;DHT22;3186;54.062;9.962;2023-04-03T16:37:14;12.60;41.30
6307;DHT22;3186;54.062;9.962;2023-04-03T16:39:40;12.60;37.90
6307;DHT22;3186;54.062;9.962;2023-04-03T16:42:06;12.40;38.00
6307;DHT22;3186;54.062;9.962;2023-04-03T16:44:35;12.40;35.60
6307;DHT22;3186;54.062;9.962;2023-04-03T16:47:01;12.30;38.60
6307;DHT22;3186;54.062;9.962;2023-04-03T16:49:27;12.40;42.80
6307;DHT22;3186;54.062;9.962;2023-04-03T16:52:01;12.40;42.90
6307;DHT22;3186;54.062;9.962;2023-04-03T16:54:27;12.30;37.90
6307;DHT22;3186;54.062;9.962;2023-04-03T16:56:53;12.10;35.10
6307;DHT22;3186;54.062;9.962;2023-04-03T16:59:19;11.90;32.40
6307;DHT22;3186;54.062;9.962;2023-04-03T17:01:45;11.80;32.70
6307;DHT22;3186;54.062;9.962;2023-04-03T17:04:11;11.70;35.50
6307;DHT22;3186;54.062;9.962;2023-04-03T17:06:38;11.60;25.80
6307;DHT22;3186;54.062;9.962;2023-04-03T17:09:05;11.50;32.60
6307;DHT22;3186;54.062;9.962;2023-04-03T17:11:31;11.40;34.60
6307;DHT22;3186;54.062;9.962;2023-04-03T17:13:58;11.40;38.40
6307;DHT22;3186;54.062;9.962;2023-04-03T17:16:24;11.40;37.30
6307;DHT22;3186;54.062;9.962;2023-04-03T17:18:51;11.20;33.80
6307;DHT22;3186;54.062;9.962;2023-04-03T17:21:17;11.30;39.50
6307;DHT22;3186;54.062;9.962;2023-04-03T17:23:47;11.20;31.70
6307;DHT22;3186;54.062;9.962;2023-04-03T17:26:14;10.90;37.90
6307;DHT22;3186;54.062;9.962;2023-04-03T17:28:40;11.00;32.70
6307;DHT22;3186;54.062;9.962;2023-04-03T17:31:07;10.90;35.80
6307;DHT22;3186;54.062;9.962;2023-04-03T17:33:33;11.00;37.70
6307;DHT22;3186;54.062;9.962;2023-04-03T17:36:00;10.90;38.10
6307;DHT22;3186;54.062;9.962;2023-04-03T17:38:27;10.80;36.10
6307;DHT22;3186;54.062;9.962;2023-04-03T17:40:57;10.70;35.90
6307;DHT22;3186;54.062;9.962;2023-04-03T17:43:24;10.70;36.90
6307;DHT22;3186;54.062;9.962;2023-04-03T17:45:50;10.60;36.20
6307;DHT22;3186;54.062;9.962;2023-04-03T17:48:17;10.60;38.00
6307;DHT22;3186;54.062;9.962;2023-04-03T17:50:42;10.60;37.50
6307;DHT22;3186;54.062;9.962;2023-04-03T17:53:09;10.50;37.10
6307;DHT22;3186;54.062;9.962;2023-04-03T17:55:38;10.40;37.20
6307;DHT22;3186;54.062;9.962;2023-04-03T17:58:05;10.40;38.50
6307;DHT22;3186;54.062;9.962;2023-04-03T18:00:31;10.30;37.50
6307;DHT22;3186;54.062;9.962;2023-04-03T18:02:57;10.20;37.30
6307;DHT22;3186;54.062;9.962;2023-04-03T18:05:29;10.10;38.50
6307;DHT22;3186;54.062;9.962;2023-04-03T18:07:57;10.10;37.30
6307;DHT22;3186;54.062;9.962;2023-04-03T18:10:24;10.00;38.30